Morning Charlotte — 3EMA2 — position and weather

sailwx.info

Track history (hours):
 
Tides and Currents Weather Stations Pressure Air Temp Water Temp Dewpoint Dewpoint Depression Visibility Wind Speed Wind Dir Waves Ship Positions

Morning Charlotte

Last reported at 2015-May-04 15:19 UTC. Time now 2015-May-23 02:38 UTC.
Position N 02°11' E 102°01'.
Warning: this ship's position is 18 days out of date.

Length 200 m; draft 9.1 m.

Type: Cargo ship. MMSI: 357275000.

Date/timePositionNaut miles runAvg speedWind from/ knotsBaromVisibWave heightAir tempDewpointWater temp
2015-May-04 15:19N 02°11' E 102°01'3117.0
2015-May-04 13:31N 01°52' E 102°26'1616.6
2015-May-04 12:33N 01°45' E 102°40'7216.7
2015-May-04 08:16N 01°09' E 103°42'810.7
2015-May-04 07:33N 01°11' E 103°50'8 8.5
2015-May-04 06:33N 01°16' E 103°57'1 1.1
2015-May-04 05:21N 01°17' E 103°58'0 0.0
2015-May-04 04:33N 01°17' E 103°58'0 0.1
2015-May-04 03:30N 01°17' E 103°58'0 0.0
2015-May-04 02:21N 01°17' E 103°58'0 0.0
2015-May-04 01:21N 01°17' E 103°58'0 0.0
2015-May-04 00:15N 01°17' E 103°58'0 0.1
2015-May-03 23:21N 01°17' E 103°58'0 0.0
2015-May-03 22:21N 01°17' E 103°58'0 0.0
2015-May-03 21:27N 01°17' E 103°58'0 0.0
2015-May-03 19:27N 01°17' E 103°58'0 0.0
2015-May-03 18:27N 01°17' E 103°58'0 0.0
2015-May-03 17:33N 01°17' E 103°58'0 0.0
2015-May-03 16:27N 01°17' E 103°58'0 0.0
2015-May-03 15:33N 01°17' E 103°58'0 0.1
2015-May-03 14:33N 01°17' E 103°58'0 0.0
2015-May-03 13:27N 01°17' E 103°58'0 0.0
2015-May-03 12:15N 01°17' E 103°58'0 0.0
2015-May-03 10:03N 01°17' E 103°58'0 0.0
2015-May-03 09:30N 01°17' E 103°58'0 0.0
2015-May-03 08:33N 01°17' E 103°58'0 0.0
2015-May-03 07:33N 01°17' E 103°58'0 0.1
2015-May-03 06:33N 01°17' E 103°58'0 0.1
2015-May-03 05:32N 01°17' E 103°58'0 0.1
2015-May-03 04:33N 01°17' E 103°58'0 0.3
2015-May-03 03:33N 01°16' E 103°58'7 6.2
2015-May-03 02:28N 01°16' E 104°04'1010.3
2015-May-03 01:31N 01°18' E 104°14'  
2015-Apr-27 08:20N 33°43' E 129°22'2017.7
2015-Apr-27 07:11N 33°56' E 129°41'1117.2
2015-Apr-27 06:33N 33°56' E 129°54'1616.4
2015-Apr-27 05:33N 33°48' E 130°12'1212.0
2015-Apr-27 04:33N 33°39' E 130°19'4 4.1
2015-Apr-27 03:33N 33°37' E 130°24'0 0.0
2015-Apr-27 02:33N 33°37' E 130°24'0 0.0
2015-Apr-27 01:33N 33°37' E 130°24'0 0.0
2015-Apr-27 00:33N 33°37' E 130°24'0 0.0
2015-Apr-26 23:29N 33°37' E 130°24'0 0.0
2015-Apr-26 22:33N 33°37' E 130°24'1 1.1
2015-Apr-26 21:33N 33°37' E 130°23'8 8.0
2015-Apr-26 20:33N 33°42' E 130°15'9 8.8
2015-Apr-26 19:33N 33°50' E 130°12'3 3.2
2015-Apr-26 18:33N 33°54' E 130°11'3 2.9
2015-Apr-26 17:33N 33°52' E 130°14'1 1.5
2015-Apr-26 16:32N 33°52' E 130°16'1 1.1
2015-Apr-26 15:33N 33°53' E 130°15'1 1.1
2015-Apr-26 14:32N 33°53' E 130°14'1 1.1
2015-Apr-26 13:29N 33°54' E 130°13'1 1.3
2015-Apr-26 12:33N 33°54' E 130°11'1 1.0
2015-Apr-26 11:30N 33°55' E 130°10'1 1.0
2015-Apr-26 10:28N 33°54' E 130°09'1 1.1
2015-Apr-26 09:32N 33°53' E 130°08'4 4.5
2015-Apr-26 08:32N 33°56' E 130°13'1312.8
2015-Apr-26 07:33N 33°60' E 130°27'1511.3
2015-Apr-26 06:14N 34°05' E 130°44'5 0.2
2015-Apr-24 23:30N 34°02' E 130°49'1714.1
2015-Apr-24 22:20N 34°02' E 130°29'1718.9
2015-Apr-24 21:26N 34°01' E 130°09'  
Track history (hours):
 
Tides and Currents Weather Stations Pressure Air Temp Water Temp Dewpoint Dewpoint Depression Visibility Wind Speed Wind Dir Waves Ship Positions

Morning Charlotte

Last reported at 2015-May-04 15:19 UTC. Time now 2015-May-23 02:38 UTC.
Position N 02°11' E 102°01'.
Warning: this ship's position is 18 days out of date.

Length 200 m; draft 9.1 m.

Type: Cargo ship. MMSI: 357275000.

Date/timePositionNaut miles runAvg speedWind from/ knotsBaromVisibWave heightAir tempDewpointWater temp
2015-May-04 15:19N 02°11' E 102°01'3117.0
2015-May-04 13:31N 01°52' E 102°26'1616.6
2015-May-04 12:33N 01°45' E 102°40'7216.7
2015-May-04 08:16N 01°09' E 103°42'810.7
2015-May-04 07:33N 01°11' E 103°50'8 8.5
2015-May-04 06:33N 01°16' E 103°57'1 1.1
2015-May-04 05:21N 01°17' E 103°58'0 0.0
2015-May-04 04:33N 01°17' E 103°58'0 0.1
2015-May-04 03:30N 01°17' E 103°58'0 0.0
2015-May-04 02:21N 01°17' E 103°58'0 0.0
2015-May-04 01:21N 01°17' E 103°58'0 0.0
2015-May-04 00:15N 01°17' E 103°58'0 0.1
2015-May-03 23:21N 01°17' E 103°58'0 0.0
2015-May-03 22:21N 01°17' E 103°58'0 0.0
2015-May-03 21:27N 01°17' E 103°58'0 0.0
2015-May-03 19:27N 01°17' E 103°58'0 0.0
2015-May-03 18:27N 01°17' E 103°58'0 0.0
2015-May-03 17:33N 01°17' E 103°58'0 0.0
2015-May-03 16:27N 01°17' E 103°58'0 0.0
2015-May-03 15:33N 01°17' E 103°58'0 0.1
2015-May-03 14:33N 01°17' E 103°58'0 0.0
2015-May-03 13:27N 01°17' E 103°58'0 0.0
2015-May-03 12:15N 01°17' E 103°58'0 0.0
2015-May-03 10:03N 01°17' E 103°58'0 0.0
2015-May-03 09:30N 01°17' E 103°58'0 0.0
2015-May-03 08:33N 01°17' E 103°58'0 0.0
2015-May-03 07:33N 01°17' E 103°58'0 0.1
2015-May-03 06:33N 01°17' E 103°58'0 0.1
2015-May-03 05:32N 01°17' E 103°58'0 0.1
2015-May-03 04:33N 01°17' E 103°58'0 0.3
2015-May-03 03:33N 01°16' E 103°58'7 6.2
2015-May-03 02:28N 01°16' E 104°04'1010.3
2015-May-03 01:31N 01°18' E 104°14'  
2015-Apr-27 08:20N 33°43' E 129°22'2017.7
2015-Apr-27 07:11N 33°56' E 129°41'1117.2
2015-Apr-27 06:33N 33°56' E 129°54'1616.4
2015-Apr-27 05:33N 33°48' E 130°12'1212.0
2015-Apr-27 04:33N 33°39' E 130°19'4 4.1
2015-Apr-27 03:33N 33°37' E 130°24'0 0.0
2015-Apr-27 02:33N 33°37' E 130°24'0 0.0
2015-Apr-27 01:33N 33°37' E 130°24'0 0.0
2015-Apr-27 00:33N 33°37' E 130°24'0 0.0
2015-Apr-26 23:29N 33°37' E 130°24'0 0.0
2015-Apr-26 22:33N 33°37' E 130°24'1 1.1
2015-Apr-26 21:33N 33°37' E 130°23'8 8.0
2015-Apr-26 20:33N 33°42' E 130°15'9 8.8
2015-Apr-26 19:33N 33°50' E 130°12'3 3.2
2015-Apr-26 18:33N 33°54' E 130°11'3 2.9
2015-Apr-26 17:33N 33°52' E 130°14'1 1.5
2015-Apr-26 16:32N 33°52' E 130°16'1 1.1
2015-Apr-26 15:33N 33°53' E 130°15'1 1.1
2015-Apr-26 14:32N 33°53' E 130°14'1 1.1
2015-Apr-26 13:29N 33°54' E 130°13'1 1.3
2015-Apr-26 12:33N 33°54' E 130°11'1 1.0
2015-Apr-26 11:30N 33°55' E 130°10'1 1.0
2015-Apr-26 10:28N 33°54' E 130°09'1 1.1
2015-Apr-26 09:32N 33°53' E 130°08'4 4.5
2015-Apr-26 08:32N 33°56' E 130°13'1312.8
2015-Apr-26 07:33N 33°60' E 130°27'1511.3
2015-Apr-26 06:14N 34°05' E 130°44'5 0.2
2015-Apr-24 23:30N 34°02' E 130°49'1714.1
2015-Apr-24 22:20N 34°02' E 130°29'1718.9
2015-Apr-24 21:26N 34°01' E 130°09'  

Dump ship's entire track history